sensor_id;sensor_type;location;lat;lon;timestamp;P1;durP1;ratioP1;P2;durP2;ratioP2
5678;SDS011;2862;52.560;13.566;2023-02-28T00:00:04;16.90;;;0.70;;
5678;SDS011;2862;52.560;13.566;2023-02-28T00:10:12;12.73;;;0.97;;
5678;SDS011;2862;52.560;13.566;2023-02-28T00:20:22;16.23;;;1.00;;
5678;SDS011;2862;52.560;13.566;2023-02-28T00:30:25;12.90;;;0.53;;
5678;SDS011;2862;52.560;13.566;2023-02-28T00:40:30;16.57;;;2.33;;
5678;SDS011;2862;52.560;13.566;2023-02-28T00:50:33;15.47;;;1.03;;
5678;SDS011;2862;52.560;13.566;2023-02-28T01:00:37;15.87;;;1.50;;
5678;SDS011;2862;52.560;13.566;2023-02-28T01:10:40;16.93;;;1.37;;
5678;SDS011;2862;52.560;13.566;2023-02-28T01:20:45;18.93;;;1.53;;
5678;SDS011;2862;52.560;13.566;2023-02-28T01:30:50;16.50;;;1.83;;
5678;SDS011;2862;52.560;13.566;2023-02-28T01:40:55;16.27;;;1.30;;
5678;SDS011;2862;52.560;13.566;2023-02-28T01:50:59;16.80;;;1.80;;
5678;SDS011;2862;52.560;13.566;2023-02-28T02:01:07;15.83;;;1.30;;
5678;SDS011;2862;52.560;13.566;2023-02-28T02:11:10;14.30;;;1.33;;
5678;SDS011;2862;52.560;13.566;2023-02-28T02:21:21;16.60;;;1.90;;
5678;SDS011;2862;52.560;13.566;2023-02-28T02:32:02;16.70;;;2.00;;
5678;SDS011;2862;52.560;13.566;2023-02-28T02:42:31;18.70;;;2.07;;
5678;SDS011;2862;52.560;13.566;2023-02-28T02:52:44;18.00;;;2.50;;
5678;SDS011;2862;52.560;13.566;2023-02-28T03:02:53;19.33;;;2.57;;
5678;SDS011;2862;52.560;13.566;2023-02-28T03:13:00;17.10;;;1.73;;
5678;SDS011;2862;52.560;13.566;2023-02-28T03:23:16;20.43;;;3.20;;
5678;SDS011;2862;52.560;13.566;2023-02-28T03:33:23;24.63;;;4.07;;
5678;SDS011;2862;52.560;13.566;2023-02-28T03:43:34;21.50;;;2.00;;
5678;SDS011;2862;52.560;13.566;2023-02-28T03:53:41;20.40;;;3.00;;
5678;SDS011;2862;52.560;13.566;2023-02-28T04:03:49;20.37;;;2.10;;
5678;SDS011;2862;52.560;13.566;2023-02-28T04:13:53;19.83;;;2.93;;
5678;SDS011;2862;52.560;13.566;2023-02-28T04:23:58;17.20;;;2.60;;
5678;SDS011;2862;52.560;13.566;2023-02-28T04:34:02;17.40;;;3.60;;
5678;SDS011;2862;52.560;13.566;2023-02-28T04:44:07;21.90;;;3.20;;
5678;SDS011;2862;52.560;13.566;2023-02-28T04:54:10;20.77;;;4.23;;
5678;SDS011;2862;52.560;13.566;2023-02-28T05:04:16;19.70;;;3.70;;
5678;SDS011;2862;52.560;13.566;2023-02-28T05:14:19;19.40;;;4.03;;
5678;SDS011;2862;52.560;13.566;2023-02-28T05:24:23;21.40;;;3.20;;
5678;SDS011;2862;52.560;13.566;2023-02-28T05:34:27;17.00;;;2.63;;
5678;SDS011;2862;52.560;13.566;2023-02-28T05:44:31;23.10;;;3.80;;
5678;SDS011;2862;52.560;13.566;2023-02-28T05:54:34;21.63;;;4.20;;
5678;SDS011;2862;52.560;13.566;2023-02-28T06:04:39;21.60;;;5.00;;
5678;SDS011;2862;52.560;13.566;2023-02-28T06:14:42;24.13;;;6.50;;
5678;SDS011;2862;52.560;13.566;2023-02-28T06:24:47;23.63;;;5.90;;
5678;SDS011;2862;52.560;13.566;2023-02-28T06:34:50;40.40;;;14.13;;
5678;SDS011;2862;52.560;13.566;2023-02-28T06:44:56;40.43;;;15.00;;
5678;SDS011;2862;52.560;13.566;2023-02-28T06:54:59;34.37;;;12.00;;
5678;SDS011;2862;52.560;13.566;2023-02-28T07:05:04;31.17;;;9.30;;
5678;SDS011;2862;52.560;13.566;2023-02-28T07:15:08;26.70;;;5.40;;
5678;SDS011;2862;52.560;13.566;2023-02-28T07:25:13;26.47;;;8.40;;
5678;SDS011;2862;52.560;13.566;2023-02-28T07:35:17;55.10;;;23.07;;
5678;SDS011;2862;52.560;13.566;2023-02-28T07:45:22;21.90;;;4.60;;
5678;SDS011;2862;52.560;13.566;2023-02-28T07:55:25;22.17;;;5.40;;
5678;SDS011;2862;52.560;13.566;2023-02-28T08:05:29;28.20;;;9.00;;
5678;SDS011;2862;52.560;13.566;2023-02-28T08:15:32;25.23;;;5.40;;
5678;SDS011;2862;52.560;13.566;2023-02-28T08:25:37;21.20;;;3.27;;
5678;SDS011;2862;52.560;13.566;2023-02-28T08:35:39;16.60;;;2.03;;
5678;SDS011;2862;52.560;13.566;2023-02-28T08:45:44;17.23;;;2.10;;
5678;SDS011;2862;52.560;13.566;2023-02-28T08:55:46;16.03;;;1.00;;
5678;SDS011;2862;52.560;13.566;2023-02-28T09:05:58;14.30;;;0.90;;
5678;SDS011;2862;52.560;13.566;2023-02-28T09:16:03;16.97;;;1.73;;
5678;SDS011;2862;52.560;13.566;2023-02-28T09:26:12;16.87;;;0.90;;
5678;SDS011;2862;52.560;13.566;2023-02-28T09:36:16;16.67;;;1.07;;
5678;SDS011;2862;52.560;13.566;2023-02-28T09:56:47;14.00;;;0.50;;
5678;SDS011;2862;52.560;13.566;2023-02-28T10:06:58;14.03;;;0.70;;
5678;SDS011;2862;52.560;13.566;2023-02-28T10:17:10;14.37;;;0.40;;
5678;SDS011;2862;52.560;13.566;2023-02-28T10:27:19;15.40;;;0.30;;
5678;SDS011;2862;52.560;13.566;2023-02-28T10:37:24;13.00;;;0.50;;
5678;SDS011;2862;52.560;13.566;2023-02-28T10:47:28;14.30;;;0.70;;
5678;SDS011;2862;52.560;13.566;2023-02-28T10:57:32;14.67;;;1.07;;
5678;SDS011;2862;52.560;13.566;2023-02-28T11:07:36;16.20;;;1.27;;
5678;SDS011;2862;52.560;13.566;2023-02-28T11:17:53;14.80;;;0.87;;
5678;SDS011;2862;52.560;13.566;2023-02-28T11:27:59;13.83;;;0.80;;
5678;SDS011;2862;52.560;13.566;2023-02-28T11:38:04;14.60;;;1.43;;
5678;SDS011;2862;52.560;13.566;2023-02-28T11:48:16;19.30;;;0.90;;
5678;SDS011;2862;52.560;13.566;2023-02-28T11:58:30;20.10;;;2.00;;
5678;SDS011;2862;52.560;13.566;2023-02-28T12:08:47;12.10;;;0.40;;
5678;SDS011;2862;52.560;13.566;2023-02-28T12:29:27;13.20;;;0.50;;
5678;SDS011;2862;52.560;13.566;2023-02-28T12:39:32;15.53;;;0.70;;
5678;SDS011;2862;52.560;13.566;2023-02-28T12:49:53;35.97;;;10.10;;
5678;SDS011;2862;52.560;13.566;2023-02-28T13:00:03;16.90;;;1.33;;
5678;SDS011;2862;52.560;13.566;2023-02-28T13:10:15;13.30;;;0.90;;
5678;SDS011;2862;52.560;13.566;2023-02-28T13:20:21;14.20;;;0.73;;
5678;SDS011;2862;52.560;13.566;2023-02-28T13:51:45;15.87;;;0.93;;
5678;SDS011;2862;52.560;13.566;2023-02-28T14:01:59;15.67;;;1.73;;
5678;SDS011;2862;52.560;13.566;2023-02-28T14:23:09;18.30;;;1.20;;
5678;SDS011;2862;52.560;13.566;2023-02-28T14:33:26;17.43;;;3.13;;
5678;SDS011;2862;52.560;13.566;2023-02-28T14:43:47;16.80;;;1.60;;
5678;SDS011;2862;52.560;13.566;2023-02-28T14:53:57;15.20;;;1.03;;
5678;SDS011;2862;52.560;13.566;2023-02-28T15:04:11;15.97;;;1.53;;
5678;SDS011;2862;52.560;13.566;2023-02-28T15:14:25;15.00;;;0.90;;
5678;SDS011;2862;52.560;13.566;2023-02-28T15:24:35;15.57;;;1.50;;
5678;SDS011;2862;52.560;13.566;2023-02-28T15:34:43;18.20;;;2.27;;
5678;SDS011;2862;52.560;13.566;2023-02-28T15:44:46;17.67;;;2.37;;
5678;SDS011;2862;52.560;13.566;2023-02-28T15:54:51;17.67;;;2.47;;
5678;SDS011;2862;52.560;13.566;2023-02-28T16:04:55;15.53;;;1.53;;
5678;SDS011;2862;52.560;13.566;2023-02-28T16:15:02;13.03;;;0.77;;
5678;SDS011;2862;52.560;13.566;2023-02-28T16:25:12;17.47;;;1.77;;
5678;SDS011;2862;52.560;13.566;2023-02-28T16:35:19;16.20;;;2.27;;
5678;SDS011;2862;52.560;13.566;2023-02-28T16:45:24;16.80;;;1.53;;
5678;SDS011;2862;52.560;13.566;2023-02-28T16:55:30;19.03;;;2.97;;
5678;SDS011;2862;52.560;13.566;2023-02-28T17:05:35;15.37;;;1.80;;
5678;SDS011;2862;52.560;13.566;2023-02-28T17:15:42;17.33;;;2.50;;
5678;SDS011;2862;52.560;13.566;2023-02-28T17:25:47;19.93;;;3.70;;
5678;SDS011;2862;52.560;13.566;2023-02-28T17:35:59;16.13;;;2.53;;
5678;SDS011;2862;52.560;13.566;2023-02-28T17:46:03;17.03;;;2.63;;
5678;SDS011;2862;52.560;13.566;2023-02-28T17:56:12;18.20;;;3.20;;
5678;SDS011;2862;52.560;13.566;2023-02-28T18:06:17;20.07;;;3.17;;
5678;SDS011;2862;52.560;13.566;2023-02-28T18:16:24;23.70;;;5.20;;
5678;SDS011;2862;52.560;13.566;2023-02-28T18:26:27;24.10;;;5.30;;
5678;SDS011;2862;52.560;13.566;2023-02-28T18:36:32;20.23;;;2.90;;
5678;SDS011;2862;52.560;13.566;2023-02-28T18:46:35;20.97;;;3.90;;
5678;SDS011;2862;52.560;13.566;2023-02-28T18:56:39;22.20;;;3.33;;
5678;SDS011;2862;52.560;13.566;2023-02-28T19:06:42;21.73;;;4.77;;
5678;SDS011;2862;52.560;13.566;2023-02-28T19:16:46;21.70;;;5.30;;
5678;SDS011;2862;52.560;13.566;2023-02-28T19:26:50;24.30;;;5.63;;
5678;SDS011;2862;52.560;13.566;2023-02-28T19:36:54;23.73;;;4.97;;
5678;SDS011;2862;52.560;13.566;2023-02-28T19:46:57;29.23;;;6.83;;
5678;SDS011;2862;52.560;13.566;2023-02-28T19:57:02;25.20;;;6.00;;
5678;SDS011;2862;52.560;13.566;2023-02-28T20:07:04;20.37;;;4.53;;
5678;SDS011;2862;52.560;13.566;2023-02-28T20:17:08;23.10;;;5.70;;
5678;SDS011;2862;52.560;13.566;2023-02-28T20:27:11;30.77;;;8.70;;
5678;SDS011;2862;52.560;13.566;2023-02-28T20:37:16;26.10;;;6.77;;
5678;SDS011;2862;52.560;13.566;2023-02-28T20:47:19;28.63;;;8.43;;
5678;SDS011;2862;52.560;13.566;2023-02-28T20:57:23;27.70;;;5.07;;
5678;SDS011;2862;52.560;13.566;2023-02-28T21:07:26;50.23;;;19.37;;
5678;SDS011;2862;52.560;13.566;2023-02-28T21:17:31;29.70;;;9.90;;
5678;SDS011;2862;52.560;13.566;2023-02-28T21:27:40;32.07;;;9.10;;
5678;SDS011;2862;52.560;13.566;2023-02-28T21:37:44;32.17;;;9.03;;
5678;SDS011;2862;52.560;13.566;2023-02-28T21:47:47;31.73;;;10.50;;
5678;SDS011;2862;52.560;13.566;2023-02-28T21:57:52;32.97;;;10.37;;
5678;SDS011;2862;52.560;13.566;2023-02-28T22:07:54;30.67;;;9.60;;
5678;SDS011;2862;52.560;13.566;2023-02-28T22:17:59;35.07;;;10.73;;
5678;SDS011;2862;52.560;13.566;2023-02-28T22:28:02;37.47;;;12.67;;
5678;SDS011;2862;52.560;13.566;2023-02-28T22:38:08;25.87;;;7.17;;
5678;SDS011;2862;52.560;13.566;2023-02-28T22:48:11;31.27;;;8.20;;
5678;SDS011;2862;52.560;13.566;2023-02-28T22:58:15;29.73;;;8.57;;
5678;SDS011;2862;52.560;13.566;2023-02-28T23:08:18;30.13;;;7.90;;
5678;SDS011;2862;52.560;13.566;2023-02-28T23:18:24;28.30;;;9.33;;
5678;SDS011;2862;52.560;13.566;2023-02-28T23:28:27;23.10;;;6.33;;
5678;SDS011;2862;52.560;13.566;2023-02-28T23:38:33;27.03;;;7.60;;
5678;SDS011;2862;52.560;13.566;2023-02-28T23:48:36;25.53;;;7.50;;
5678;SDS011;2862;52.560;13.566;2023-02-28T23:58:40;54.13;;;17.63;;
